Aeroporto :
LOGIN :

Iscrizione | Disclaimer

   EN    FR    IT 

 










Sommario :    VFR   VFR Marginale   IFR   IFR Intensivo   IFR Molto Intensivo
Visibilità : 
Base nubi : 
>= 8 km
>= 3000ft
5 / 8 km
1000 / 3000 ft
1500m / 5 km
500 / 1000 ft
800 / 1500m
200 / 500 ft
< 800m
< 200 ft
Simboli :   Temporali  Nebbia  Neve Forte  Precipitazioni Forti  Vento > 20 kt
SIGMETs :   Varie  Temporali  Ghiacco  Turbolenza  Onda orograficha  Ceneri Vulcaniche






- Altitudine del aeroporto : 512 ft
- Codice IATA : URO


LFOP - Rouen Vallée de Seine

ULTIMO METAR :
  • 121330Z AUTO 24010KT 9999 FEW023/// SCT060/// BKN088/// ///TCU 04/03 Q1003 TEMPO 28020G30KT 4000 SHRA BKN025CB

METARs OBSOLETI :
  • 121300Z AUTO 25010KT 9999 RA FEW026/// BKN050/// BKN062/// ///TCU 05/04 Q1003 TEMPO 28020G30KT 4000 SHRA BKN025CB
  • 121230Z AUTO 25010KT 9999 FEW015/// BKN026/// BKN047/// ///TCU 05/04 Q1003 TEMPO 28020G30KT 4000 SHRA BKN025CB
  • 121200Z AUTO 24010KT 210V280 9999 -RA BKN011/// BKN016/// BKN022/// ///TCU 05/04 Q1003 TEMPO 28020G30KT 4000 SHRA BKN025CB
  • 121130Z AUTO 21011KT 9000 RA SCT018/// BKN036/// BKN050/// ///TCU 05/04 Q1003 TEMPO 23015G25KT 3000 SHRA BKN007 BKN030CB
  • 121100Z AUTO 22011KT 190V250 9999 -RA FEW016/// SCT024/// BKN032/// ///TCU 05/04 Q1003 TEMPO 23015G25KT 3000 SHRA BKN007 BKN030CB

TAF TAF LFOP
Valido dal 12 a 12 ore il 13 a 12 ore UTC


121100Z 1212/1312 23010KT 9999 SCT030
TEMPO 1212/1303 4000 SHRA BKN025CB
TEMPO 1212/1216 28020G30KT
PROB40
TEMPO 1220/1223 2000 TSRA
TEMPO 1305/1309 2000 BR
TEMPO 1310/1312 4000 SHRA BKN008 BKN020CB
ATIS : +33 2 35 80 80 34
Met : +33 2 32 86 52 80



MetMap, La meteo Aeronautica in un colpo d'occhio ! - Copyright ORBIFLY Dicembre 2007 - Disclaimer

ORBIFLY MET'MAP TEAM :

Programmazione e sviluppo : Alexandra Zaïnal
Concezione e sviluppo : Baudouin d'Aumeries
Co-Programmazione e sviluppo : Marc-Olivier Méhu
Supporto tecnico e logistico : Manuel Goepfert
Aiuto per la traduzione : Arnaldo La Scala

Contatto : metmap@orbifly.com




FONTI E CREDITI :

   NOAA